createdAt,value
2018-12-12T00:00:15.127Z,5.17
2018-12-12T00:03:03.037Z,3.87
2018-12-12T00:05:50.728Z,4.40
2018-12-12T00:08:38.356Z,4.10
2018-12-12T00:11:06.410Z,3.50
2018-12-12T00:13:34.490Z,4.50
2018-12-12T00:16:02.664Z,5.25
2018-12-12T00:18:30.684Z,4.37
2018-12-12T00:21:18.619Z,5.30
2018-12-12T00:23:46.753Z,5.60
2018-12-12T00:26:15.006Z,4.53
2018-12-12T00:28:43.046Z,4.47
2018-12-12T00:31:30.599Z,4.22
2018-12-12T00:33:58.674Z,4.87
2018-12-12T00:36:26.793Z,5.67
2018-12-12T00:38:54.878Z,5.05
2018-12-12T00:41:22.971Z,4.35
2018-12-12T00:43:51.167Z,3.98
2018-12-12T00:46:19.266Z,4.62
2018-12-12T00:48:47.325Z,3.75
2018-12-12T00:51:15.414Z,4.33
2018-12-12T00:53:43.469Z,4.85
2018-12-12T00:56:11.587Z,4.58
2018-12-12T00:58:39.646Z,4.47
2018-12-12T01:01:27.264Z,4.62
2018-12-12T01:03:55.705Z,4.50
2018-12-12T01:06:43.372Z,3.35
2018-12-12T01:09:11.490Z,3.30
2018-12-12T01:11:58.688Z,5.25
2018-12-12T01:14:27.177Z,4.60
2018-12-12T01:16:55.222Z,4.55
2018-12-12T01:19:23.293Z,3.95
2018-12-12T01:22:10.851Z,4.28
2018-12-12T01:24:39.335Z,4.90
2018-12-12T01:27:07.380Z,3.90
2018-12-12T01:29:35.831Z,4.35
2018-12-12T01:32:03.920Z,3.70
2018-12-12T01:34:32.001Z,5.03
2018-12-12T01:37:00.037Z,4.90
2018-12-12T01:39:28.168Z,4.50
2018-12-12T01:41:56.210Z,4.00
2018-12-12T01:44:24.287Z,3.40
2018-12-12T01:46:52.979Z,4.90
2018-12-12T01:49:21.415Z,4.03
2018-12-12T01:51:49.531Z,3.65
2018-12-12T01:54:37.071Z,4.25
2018-12-12T01:57:05.162Z,4.45
2018-12-12T01:59:33.594Z,4.00
2018-12-12T02:02:01.667Z,3.80
2018-12-12T02:04:29.719Z,4.28
2018-12-12T02:06:57.822Z,3.37
2018-12-12T02:09:26.132Z,5.05
2018-12-12T02:11:54.622Z,3.87
2018-12-12T02:14:22.717Z,4.50
2018-12-12T02:16:50.803Z,5.75
2018-12-12T02:19:18.860Z,4.58
2018-12-12T02:21:46.959Z,4.15
2018-12-12T02:24:15.005Z,4.10
2018-12-12T02:26:43.496Z,3.77
2018-12-12T02:29:11.566Z,4.05
2018-12-12T02:31:39.595Z,4.30
2018-12-12T02:34:27.212Z,5.03
2018-12-12T02:37:14.810Z,4.50
2018-12-12T02:39:42.901Z,3.75
2018-12-12T02:42:30.500Z,5.05
2018-12-12T02:44:58.585Z,5.35
2018-12-12T02:47:26.639Z,5.05
2018-12-12T02:49:54.866Z,4.90
2018-12-12T02:52:22.910Z,4.47
2018-12-12T02:54:51.494Z,4.10
2018-12-12T02:57:19.515Z,5.17
2018-12-12T02:59:47.583Z,5.10
2018-12-12T03:02:16.052Z,4.40
2018-12-12T03:04:44.112Z,4.55
2018-12-12T03:07:31.717Z,4.28
2018-12-12T03:09:59.815Z,4.42
2018-12-12T03:12:28.250Z,4.10
2018-12-12T03:14:56.382Z,4.55
2018-12-12T03:17:24.804Z,5.60
2018-12-12T03:19:52.847Z,4.60
2018-12-12T03:22:20.890Z,4.42
2018-12-12T03:24:48.942Z,4.45
2018-12-12T03:27:17.001Z,4.37
2018-12-12T03:30:04.696Z,4.22
2018-12-12T03:32:32.806Z,4.28
2018-12-12T03:35:00.871Z,3.83
2018-12-12T03:37:28.974Z,5.60
2018-12-12T03:39:57.048Z,5.42
2018-12-12T03:42:25.130Z,5.58
2018-12-12T03:45:12.718Z,4.50
2018-12-12T03:48:00.892Z,5.65
2018-12-12T03:50:29.464Z,3.98
2018-12-12T03:53:17.059Z,5.00
2018-12-12T03:56:04.599Z,4.95
2018-12-12T03:58:52.243Z,4.62
2018-12-12T04:01:20.311Z,5.37
2018-12-12T04:03:48.730Z,4.62
2018-12-12T04:06:36.369Z,4.83
2018-12-12T04:09:06.715Z,3.20
2018-12-12T04:11:54.291Z,4.03
2018-12-12T04:14:22.762Z,3.62
2018-12-12T04:16:50.856Z,3.15
2018-12-12T04:19:18.950Z,4.80
2018-12-12T04:21:47.013Z,3.98
2018-12-12T04:24:15.044Z,3.98
2018-12-12T04:26:43.135Z,4.60
2018-12-12T04:29:11.230Z,5.05
2018-12-12T04:31:58.764Z,3.60
2018-12-12T04:34:26.854Z,3.98
2018-12-12T04:36:55.347Z,3.50
2018-12-12T04:39:23.801Z,4.67
2018-12-12T04:41:51.824Z,4.30
2018-12-12T04:44:19.839Z,4.47
2018-12-12T04:47:07.415Z,4.22
2018-12-12T04:49:35.464Z,3.65
2018-12-12T04:52:23.014Z,4.42
2018-12-12T04:55:10.543Z,3.50
2018-12-12T04:57:38.585Z,4.12
2018-12-12T05:00:26.130Z,4.05
2018-12-12T05:02:54.206Z,3.77
2018-12-12T05:05:22.508Z,3.50
2018-12-12T05:07:50.542Z,3.75
2018-12-12T05:10:18.574Z,4.70
2018-12-12T05:13:06.133Z,5.05
2018-12-12T05:15:34.232Z,4.22
2018-12-12T05:18:02.257Z,3.02
2018-12-12T05:20:30.353Z,3.55
2018-12-12T05:23:17.914Z,3.85
2018-12-12T05:25:45.963Z,4.60
2018-12-12T05:28:14.003Z,4.60
2018-12-12T05:30:42.433Z,4.85
2018-12-12T05:33:29.953Z,4.10
2018-12-12T05:35:58.013Z,4.08
2018-12-12T05:38:26.050Z,4.62
2018-12-12T05:40:54.481Z,4.25
2018-12-12T05:43:22.504Z,3.83
2018-12-12T05:45:51.338Z,3.45
2018-12-12T05:48:19.392Z,3.77
2018-12-12T05:51:06.943Z,3.72
2018-12-12T05:53:34.987Z,4.50
2018-12-12T05:56:03.478Z,4.55
2018-12-12T05:58:31.509Z,4.33
2018-12-12T06:00:59.528Z,4.83
2018-12-12T06:03:27.559Z,5.55
2018-12-12T06:05:55.822Z,4.10
2018-12-12T06:08:23.859Z,5.12
2018-12-12T06:10:51.883Z,5.22
2018-12-12T06:13:19.915Z,5.20
2018-12-12T06:15:55.492Z,4.08
2018-12-12T06:18:23.571Z,5.40
2018-12-12T06:20:51.943Z,6.70
2018-12-12T06:23:19.961Z,4.00
2018-12-12T06:26:07.478Z,5.30
2018-12-12T06:28:36.011Z,5.10
2018-12-12T06:31:04.034Z,4.85
2018-12-12T06:33:32.079Z,5.35
2018-12-12T06:36:00.100Z,4.00
2018-12-12T06:38:28.530Z,5.25
2018-12-12T06:40:56.575Z,4.78
2018-12-12T06:43:24.601Z,4.55
2018-12-12T06:45:52.615Z,5.15
2018-12-12T06:48:20.640Z,4.25
2018-12-12T06:50:49.086Z,5.15
2018-12-12T06:53:17.518Z,4.80
2018-12-12T06:55:45.954Z,5.67
2018-12-12T06:58:13.982Z,5.35
2018-12-12T07:00:41.998Z,5.47
2018-12-12T07:03:10.460Z,5.05
2018-12-12T07:05:38.480Z,4.05
2018-12-12T07:08:06.526Z,3.98
2018-12-12T07:10:34.548Z,3.72
2018-12-12T07:13:02.593Z,4.87
2018-12-12T07:15:30.630Z,4.80
2018-12-12T07:17:59.005Z,4.30
2018-12-12T07:20:27.023Z,4.20
2018-12-12T07:22:55.055Z,4.75
2018-12-12T07:25:23.071Z,5.45
2018-12-12T07:27:51.647Z,4.30
2018-12-12T07:30:19.658Z,4.92
2018-12-12T07:32:47.674Z,4.12
2018-12-12T07:35:15.706Z,5.00
2018-12-12T07:37:43.743Z,5.00
2018-12-12T07:40:11.767Z,5.60
2018-12-12T07:42:39.815Z,7.22
2018-12-12T07:45:07.834Z,6.67
2018-12-12T07:47:35.896Z,7.65
2018-12-12T07:50:04.360Z,9.70
2018-12-12T07:52:32.639Z,10.43
2018-12-12T07:55:01.057Z,6.47
2018-12-12T07:57:29.081Z,7.35
2018-12-12T07:59:57.103Z,9.15
2018-12-12T08:02:25.913Z,10.00
2018-12-12T08:04:53.946Z,7.85
2018-12-12T08:07:22.356Z,6.30
2018-12-12T08:09:50.816Z,6.62
2018-12-12T08:12:18.853Z,5.85
2018-12-12T08:14:46.874Z,5.80
2018-12-12T08:17:14.902Z,5.83
2018-12-12T08:19:42.928Z,6.00
2018-12-12T08:22:10.978Z,5.70
2018-12-12T08:24:39.001Z,6.47
2018-12-12T08:27:07.018Z,5.78
2018-12-12T08:29:35.408Z,7.25
2018-12-12T08:32:03.443Z,8.18
2018-12-12T08:34:31.886Z,8.85
2018-12-12T08:36:59.916Z,7.60
2018-12-12T08:39:27.957Z,8.23
2018-12-12T08:41:56.385Z,7.60
2018-12-12T08:44:24.405Z,5.10
2018-12-12T08:46:52.894Z,5.97
2018-12-12T08:49:20.934Z,7.25
2018-12-12T08:51:48.952Z,7.55
2018-12-12T08:54:16.989Z,6.50
2018-12-12T08:56:45.005Z,6.42
2018-12-12T08:59:13.031Z,8.10
2018-12-12T09:01:41.064Z,7.28
2018-12-12T09:04:09.143Z,7.55
2018-12-12T09:06:37.626Z,6.78
2018-12-12T09:09:07.402Z,9.08
2018-12-12T09:11:35.785Z,9.38
2018-12-12T09:14:03.827Z,8.78
2018-12-12T09:16:31.861Z,9.23
2018-12-12T09:18:59.903Z,8.35
2018-12-12T09:21:27.924Z,8.53
2018-12-12T09:23:56.373Z,9.48
2018-12-12T09:26:24.403Z,10.80
2018-12-12T09:28:52.428Z,10.88
2018-12-12T09:31:20.461Z,12.33
2018-12-12T09:33:48.512Z,11.57
2018-12-12T09:36:16.543Z,10.58
2018-12-12T09:38:45.008Z,11.03
2018-12-12T09:41:13.041Z,12.05
2018-12-12T09:43:41.513Z,11.78
2018-12-12T09:46:09.542Z,11.73
2018-12-12T09:48:38.032Z,10.82
2018-12-12T09:51:07.532Z,9.35
2018-12-12T09:53:34.497Z,11.28
2018-12-12T09:56:02.520Z,10.78
2018-12-12T09:58:30.961Z,13.05
2018-12-12T10:00:59.346Z,11.48
2018-12-12T10:03:31.089Z,10.40
2018-12-12T10:05:55.403Z,16.00
2018-12-12T10:08:23.826Z,14.30
2018-12-12T10:10:51.852Z,14.18
2018-12-12T10:13:19.892Z,14.15
2018-12-12T10:15:47.922Z,11.48
2018-12-12T10:18:15.943Z,14.53
2018-12-12T10:20:43.973Z,17.07
2018-12-12T10:23:12.014Z,13.43
2018-12-12T10:25:40.042Z,12.03
2018-12-12T10:28:08.500Z,13.80
2018-12-12T10:30:36.520Z,12.73
2018-12-12T10:33:04.562Z,15.40
2018-12-12T10:35:32.593Z,10.82
2018-12-12T10:38:01.900Z,11.85
2018-12-12T10:40:29.934Z,10.40
2018-12-12T10:42:57.975Z,10.88
2018-12-12T10:45:26.012Z,10.93
2018-12-12T10:47:54.459Z,10.60
2018-12-12T10:50:22.787Z,11.73
2018-12-12T10:52:50.813Z,12.18
2018-12-12T10:55:19.252Z,11.95
2018-12-12T10:57:47.260Z,12.47
2018-12-12T11:00:16.105Z,12.33
2018-12-12T11:03:03.290Z,11.03
2018-12-12T11:05:31.348Z,13.30
2018-12-12T11:07:59.362Z,9.48
2018-12-12T11:10:27.407Z,8.50
2018-12-12T11:12:55.434Z,8.50
2018-12-12T11:15:23.847Z,5.87
2018-12-12T11:17:52.263Z,6.95
2018-12-12T11:20:20.282Z,9.58
2018-12-12T11:22:48.293Z,9.35
2018-12-12T11:25:16.322Z,7.85
2018-12-12T11:27:44.331Z,9.53
2018-12-12T11:30:12.355Z,9.35
2018-12-12T11:32:40.378Z,8.35
2018-12-12T11:35:08.405Z,9.70
2018-12-12T11:37:36.433Z,10.10
2018-12-12T11:40:05.066Z,8.95
2018-12-12T11:42:33.091Z,9.78
2018-12-12T11:45:01.126Z,10.13
2018-12-12T11:47:29.142Z,8.85
2018-12-12T11:49:57.171Z,7.55
2018-12-12T11:52:25.183Z,9.85
2018-12-12T11:54:53.215Z,9.98
2018-12-12T11:57:21.660Z,11.33
2018-12-12T11:59:49.687Z,10.50
2018-12-12T12:02:17.713Z,10.08
2018-12-12T12:04:46.159Z,8.88
2018-12-12T12:07:14.181Z,9.70
2018-12-12T12:09:42.219Z,9.75
2018-12-12T12:12:10.242Z,9.68
2018-12-12T12:14:38.266Z,8.70
2018-12-12T12:17:06.655Z,10.20
2018-12-12T12:19:34.691Z,8.95
2018-12-12T12:22:02.727Z,8.73
2018-12-12T12:24:31.187Z,8.98
2018-12-12T12:26:59.235Z,8.65
2018-12-12T12:29:27.272Z,8.88
2018-12-12T12:31:55.301Z,13.83
2018-12-12T12:34:23.829Z,19.05
2018-12-12T12:36:51.835Z,12.28
2018-12-12T12:39:20.608Z,9.28
2018-12-12T12:41:49.283Z,9.08
2018-12-12T12:44:17.319Z,8.15
2018-12-12T12:46:45.338Z,7.17
2018-12-12T12:49:13.365Z,7.70
2018-12-12T12:51:41.833Z,6.37
2018-12-12T12:54:09.862Z,9.08
2018-12-12T12:56:37.895Z,7.55
2018-12-12T12:59:05.919Z,7.17
2018-12-12T13:01:33.958Z,8.18
2018-12-12T13:04:01.970Z,7.62
2018-12-12T13:06:30.005Z,9.33
2018-12-12T13:08:58.376Z,6.80
2018-12-12T13:11:26.403Z,8.45
2018-12-12T13:13:54.419Z,6.55
2018-12-12T13:16:22.457Z,7.58
2018-12-12T13:18:50.527Z,8.63
2018-12-12T13:21:18.571Z,8.55
2018-12-12T13:23:46.595Z,8.88
2018-12-12T13:26:14.672Z,8.33
2018-12-12T13:28:43.150Z,6.62
2018-12-12T13:31:11.182Z,6.83
2018-12-12T13:33:39.224Z,5.47
2018-12-12T13:36:07.254Z,7.40
2018-12-12T13:38:35.268Z,7.53
2018-12-12T13:41:03.323Z,6.42
2018-12-12T13:43:31.366Z,6.78
2018-12-12T13:45:59.402Z,6.20
2018-12-12T13:48:27.419Z,7.25
2018-12-12T13:50:55.435Z,7.50
2018-12-12T13:53:23.846Z,6.47
2018-12-12T13:55:51.875Z,7.12
2018-12-12T13:58:20.264Z,6.22
2018-12-12T14:00:48.293Z,6.42
2018-12-12T14:03:16.345Z,6.28
2018-12-12T14:05:44.390Z,6.95
2018-12-12T14:08:12.417Z,8.08
2018-12-12T14:10:40.466Z,8.03
2018-12-12T14:13:08.492Z,9.05
2018-12-12T14:15:36.538Z,7.37
2018-12-12T14:18:04.560Z,7.33
2018-12-12T14:20:32.631Z,7.67
2018-12-12T14:23:00.668Z,6.47
2018-12-12T14:25:28.700Z,7.92
2018-12-12T14:27:56.721Z,6.40
2018-12-12T14:30:24.760Z,6.05
2018-12-12T14:32:52.795Z,7.05
2018-12-12T14:35:20.834Z,7.85
2018-12-12T14:37:48.869Z,8.65
2018-12-12T14:40:17.291Z,7.10
2018-12-12T14:42:45.318Z,8.50
2018-12-12T14:45:13.338Z,8.35
2018-12-12T14:47:41.370Z,8.35
2018-12-12T14:50:09.381Z,9.90
2018-12-12T14:52:37.414Z,9.43
2018-12-12T14:55:05.449Z,9.30
2018-12-12T14:57:33.499Z,10.80
2018-12-12T15:00:01.964Z,8.88
2018-12-12T15:02:30.011Z,7.78
2018-12-12T15:04:58.062Z,9.10
2018-12-12T15:07:26.500Z,7.37
2018-12-12T15:09:54.949Z,6.85
2018-12-12T15:12:22.984Z,8.23
2018-12-12T15:14:51.074Z,8.33
2018-12-12T15:17:19.135Z,8.00
2018-12-12T15:19:47.166Z,6.45
2018-12-12T15:22:16.892Z,8.40
2018-12-12T15:24:44.926Z,8.35
2018-12-12T15:27:13.330Z,8.03
2018-12-12T15:29:41.356Z,8.10
2018-12-12T15:32:09.405Z,8.83
2018-12-12T15:34:42.283Z,10.00
2018-12-12T15:37:05.891Z,8.85
2018-12-12T15:39:33.921Z,8.10
2018-12-12T15:42:01.959Z,8.60
2018-12-12T15:44:30.395Z,9.30
2018-12-12T15:46:58.427Z,9.23
2018-12-12T15:49:45.953Z,8.03
2018-12-12T15:52:14.053Z,8.90
2018-12-12T15:54:42.090Z,9.40
2018-12-12T15:57:10.172Z,8.40
2018-12-12T15:59:38.634Z,9.35
2018-12-12T16:02:07.438Z,9.68
2018-12-12T16:04:35.883Z,9.38
2018-12-12T16:07:03.940Z,10.03
2018-12-12T16:09:32.370Z,9.28
2018-12-12T16:12:00.420Z,10.95
2018-12-12T16:14:28.450Z,10.98
2018-12-12T16:16:56.478Z,9.90
2018-12-12T16:19:24.966Z,10.18
2018-12-12T16:21:53.009Z,9.45
2018-12-12T16:24:21.030Z,12.10
2018-12-12T16:26:49.466Z,10.48
2018-12-12T16:29:18.134Z,10.08
2018-12-12T16:31:46.164Z,9.33
2018-12-12T16:34:14.190Z,9.15
2018-12-12T16:36:42.223Z,9.75
2018-12-12T16:39:10.807Z,11.05
2018-12-12T16:41:38.848Z,10.53
2018-12-12T16:44:06.872Z,11.70
2018-12-12T16:46:34.908Z,12.00
2018-12-12T16:49:02.926Z,10.25
2018-12-12T16:51:50.509Z,10.65
2018-12-12T16:54:18.875Z,12.47
2018-12-12T16:56:47.795Z,10.80
2018-12-12T16:59:19.391Z,11.65
2018-12-12T17:01:47.868Z,10.85
2018-12-12T17:04:16.431Z,10.85
2018-12-12T17:06:44.861Z,9.65
2018-12-12T17:09:13.170Z,12.10
2018-12-12T17:11:41.578Z,9.78
2018-12-12T17:14:09.604Z,11.53
2018-12-12T17:16:37.642Z,12.20
2018-12-12T17:19:05.660Z,12.90
2018-12-12T17:21:33.714Z,10.95
2018-12-12T17:24:01.739Z,10.63
2018-12-12T17:26:29.771Z,12.95
2018-12-12T17:28:57.927Z,10.88
2018-12-12T17:31:26.878Z,11.45
2018-12-12T17:33:54.936Z,20.95
2018-12-12T17:36:22.968Z,13.93
2018-12-12T17:38:51.003Z,11.68
2018-12-12T17:41:19.049Z,11.43
2018-12-12T17:43:47.079Z,11.93
2018-12-12T17:46:15.110Z,12.03
2018-12-12T17:48:43.515Z,12.65
2018-12-12T17:51:11.946Z,11.73
2018-12-12T17:53:40.437Z,13.35
2018-12-12T17:56:08.510Z,12.78
2018-12-12T17:58:56.037Z,11.75
2018-12-12T18:01:24.092Z,10.63
2018-12-12T18:03:52.526Z,10.00
2018-12-12T18:06:20.558Z,11.20
2018-12-12T18:08:49.048Z,10.98
2018-12-12T18:11:17.469Z,11.93
2018-12-12T18:13:45.519Z,10.88
2018-12-12T18:16:13.973Z,10.48
2018-12-12T18:18:42.451Z,9.93
2018-12-12T18:21:10.472Z,12.05
2018-12-12T18:23:38.518Z,9.53
2018-12-12T18:26:06.545Z,10.38
2018-12-12T18:28:34.580Z,9.95
2018-12-12T18:31:02.594Z,9.05
2018-12-12T18:33:31.496Z,10.95
2018-12-12T18:35:59.518Z,9.93
2018-12-12T18:38:27.558Z,8.83
2018-12-12T18:40:55.576Z,8.18
2018-12-12T18:43:23.609Z,8.85
2018-12-12T18:45:51.645Z,9.23
2018-12-12T18:48:19.676Z,7.33
2018-12-12T18:50:48.159Z,8.28
2018-12-12T18:53:16.194Z,7.03
2018-12-12T18:55:44.609Z,6.05
2018-12-12T18:58:13.040Z,6.00
2018-12-12T19:00:41.304Z,5.80
2018-12-12T19:03:09.749Z,5.20
2018-12-12T19:05:37.931Z,6.58
2018-12-12T19:08:05.970Z,6.12
2018-12-12T19:10:34.001Z,5.03
2018-12-12T19:13:02.052Z,5.95
2018-12-12T19:15:30.072Z,4.83
2018-12-12T19:17:58.090Z,4.17
2018-12-12T19:20:26.111Z,4.00
2018-12-12T19:22:54.236Z,5.20
2018-12-12T19:25:22.245Z,3.98
2018-12-12T19:27:50.251Z,4.67
2018-12-12T19:30:18.734Z,5.05
2018-12-12T19:32:46.765Z,4.17
2018-12-12T19:35:14.785Z,5.42
2018-12-12T19:37:42.807Z,4.55
2018-12-12T19:40:10.831Z,3.90
2018-12-12T19:42:38.855Z,6.05
2018-12-12T19:45:07.802Z,5.33
2018-12-12T19:47:35.827Z,3.55
2018-12-12T19:50:04.353Z,4.30
2018-12-12T19:52:32.371Z,5.75
2018-12-12T19:55:00.838Z,4.78
2018-12-12T19:57:28.863Z,4.35
2018-12-12T19:59:56.893Z,4.22
2018-12-12T20:02:25.265Z,4.40
2018-12-12T20:04:53.292Z,3.98
2018-12-12T20:07:21.317Z,3.17
2018-12-12T20:09:49.358Z,3.35
2018-12-12T20:12:17.369Z,3.67
2018-12-12T20:14:45.393Z,3.52
2018-12-12T20:17:13.799Z,4.25
2018-12-12T20:19:42.213Z,4.53
2018-12-12T20:22:10.253Z,4.55
2018-12-12T20:24:39.293Z,4.70
2018-12-12T20:27:07.320Z,6.35
2018-12-12T20:29:35.363Z,5.60
2018-12-12T20:32:22.531Z,4.95
2018-12-12T20:34:50.594Z,4.33
2018-12-12T20:37:19.002Z,6.05
2018-12-12T20:39:47.479Z,6.47
2018-12-12T20:42:15.874Z,5.95
2018-12-12T20:44:43.901Z,3.98
2018-12-12T20:47:11.913Z,4.50
2018-12-12T20:49:39.983Z,5.30
2018-12-12T20:52:08.374Z,5.08
2018-12-12T20:54:36.395Z,5.45
2018-12-12T20:57:04.425Z,4.85
2018-12-12T20:59:32.454Z,4.92
2018-12-12T21:02:00.481Z,3.95
2018-12-12T21:04:28.514Z,3.72
2018-12-12T21:06:56.523Z,4.60
2018-12-12T21:09:24.541Z,3.72
2018-12-12T21:11:52.555Z,4.37
2018-12-12T21:14:20.583Z,3.77
2018-12-12T21:16:48.620Z,4.40
2018-12-12T21:19:16.644Z,4.33
2018-12-12T21:21:44.658Z,5.47
2018-12-12T21:24:12.693Z,6.78
2018-12-12T21:26:40.715Z,5.12
2018-12-12T21:29:08.734Z,5.62
2018-12-12T21:31:36.759Z,5.40
2018-12-12T21:34:04.798Z,6.35
2018-12-12T21:36:32.833Z,6.00
2018-12-12T21:39:00.865Z,6.55
2018-12-12T21:41:29.024Z,6.47
2018-12-12T21:43:57.044Z,6.42
2018-12-12T21:46:25.089Z,6.30
2018-12-12T21:48:53.125Z,7.92
2018-12-12T21:51:21.140Z,9.20
2018-12-12T21:53:49.172Z,5.95
2018-12-12T21:56:17.195Z,5.90
2018-12-12T21:58:45.286Z,6.08
2018-12-12T22:01:13.246Z,4.72
2018-12-12T22:03:41.270Z,5.40
2018-12-12T22:06:09.311Z,5.30
2018-12-12T22:08:37.327Z,5.87
2018-12-12T22:11:05.369Z,5.25
2018-12-12T22:13:33.415Z,6.25
2018-12-12T22:16:01.446Z,6.03
2018-12-12T22:18:29.483Z,6.67
2018-12-12T22:20:57.501Z,7.85
2018-12-12T22:23:25.584Z,5.40
2018-12-12T22:25:53.666Z,6.17
2018-12-12T22:28:21.687Z,5.37
2018-12-12T22:30:49.727Z,5.08
2018-12-12T22:33:17.752Z,5.10
2018-12-12T22:35:46.227Z,6.05
2018-12-12T22:38:14.242Z,5.05
2018-12-12T22:40:42.288Z,5.40
2018-12-12T22:43:10.302Z,5.03
2018-12-12T22:45:38.333Z,5.67
2018-12-12T22:48:06.353Z,4.70
2018-12-12T22:50:34.398Z,4.25
2018-12-12T22:53:02.420Z,4.87
2018-12-12T22:55:30.441Z,4.53
2018-12-12T22:57:58.458Z,3.98
2018-12-12T23:00:45.638Z,4.30
2018-12-12T23:03:14.187Z,4.65
2018-12-12T23:06:03.134Z,4.85
2018-12-12T23:08:31.186Z,4.03
2018-12-12T23:10:59.417Z,4.30
2018-12-12T23:13:27.465Z,4.80
2018-12-12T23:15:55.493Z,6.10
2018-12-12T23:18:23.896Z,4.75
2018-12-12T23:21:11.843Z,4.10
2018-12-12T23:23:59.493Z,4.65
2018-12-12T23:26:50.122Z,4.72
2018-12-12T23:29:20.924Z,4.55
2018-12-12T23:31:49.773Z,4.70
2018-12-12T23:34:37.307Z,5.17
2018-12-12T23:37:25.142Z,3.40
2018-12-12T23:39:53.482Z,4.45
2018-12-12T23:42:21.861Z,4.55
2018-12-12T23:44:50.122Z,4.35
2018-12-12T23:47:18.207Z,5.33
2018-12-12T23:49:46.215Z,4.58
2018-12-12T23:52:14.286Z,4.25
2018-12-12T23:54:42.305Z,4.58
2018-12-12T23:57:10.329Z,5.35
2018-12-12T23:59:38.471Z,5.10
